createdAt,value
2023-04-02T00:00:29.653Z,95690.78
2023-04-02T00:02:25.865Z,95695.53
2023-04-02T00:04:23.492Z,95698.28
2023-04-02T00:05:56.200Z,95697.63
2023-04-02T00:07:31.196Z,95693.97
2023-04-02T00:09:05.880Z,95699.50
2023-04-02T00:10:38.063Z,95707.78
2023-04-02T00:12:22.412Z,95706.34
2023-04-02T00:13:53.976Z,95700.94
2023-04-02T00:15:25.810Z,95697.41
2023-04-02T00:16:57.970Z,95704.06
2023-04-02T00:18:29.678Z,95708.16
2023-04-02T00:20:06.382Z,95711.09
2023-04-02T00:21:38.861Z,95711.44
2023-04-02T00:23:11.768Z,95709.91
2023-04-02T00:24:43.491Z,95703.59
2023-04-02T00:26:23.071Z,95717.19
2023-04-02T00:27:54.902Z,95707.56
2023-04-02T00:29:26.529Z,95715.19
2023-04-02T00:30:59.553Z,95715.06
2023-04-02T00:32:31.781Z,95715.97
2023-04-02T00:34:04.790Z,95713.66
2023-04-02T00:35:37.882Z,95718.19
2023-04-02T00:37:11.309Z,95715.19
2023-04-02T00:38:43.931Z,95717.50
2023-04-02T00:40:19.972Z,95718.38
2023-04-02T00:42:05.074Z,95710.84
2023-04-02T00:43:38.254Z,95715.81
2023-04-02T00:45:14.171Z,95723.44
2023-04-02T00:46:49.760Z,95719.66
2023-04-02T00:48:36.890Z,95715.81
2023-04-02T00:50:22.012Z,95717.25
2023-04-02T00:51:56.881Z,95719.91
2023-04-02T00:53:29.549Z,95715.38
2023-04-02T00:55:03.922Z,95711.63
2023-04-02T00:56:37.706Z,95711.53
2023-04-02T00:58:13.856Z,95703.56
2023-04-02T00:59:51.312Z,95700.50
2023-04-02T01:01:24.251Z,95715.97
2023-04-02T01:03:29.123Z,95703.59
2023-04-02T01:05:02.288Z,95707.16
2023-04-02T01:06:35.665Z,95707.25
2023-04-02T01:08:11.168Z,95703.94
2023-04-02T01:09:50.353Z,95704.34
2023-04-02T01:11:32.236Z,95707.91
2023-04-02T01:13:08.753Z,95706.25
2023-04-02T01:14:45.812Z,95713.41
2023-04-02T01:16:19.826Z,95715.88
2023-04-02T01:18:03.335Z,95715.72
2023-04-02T01:20:11.812Z,95722.56
2023-04-02T01:21:52.957Z,95727.00
2023-04-02T01:23:27.813Z,95726.81
2023-04-02T01:24:59.455Z,95719.97
2023-04-02T01:26:52.558Z,95731.34
2023-04-02T01:28:27.236Z,95726.03
2023-04-02T01:30:00.743Z,95727.69
2023-04-02T01:31:33.306Z,95716.41
2023-04-02T01:33:05.638Z,95724.94
2023-04-02T01:34:37.902Z,95720.53
2023-04-02T01:36:11.802Z,95719.97
2023-04-02T01:37:46.692Z,95717.75
2023-04-02T01:39:24.525Z,95719.53
2023-04-02T01:40:58.818Z,95720.19
2023-04-02T01:42:33.299Z,95717.13
2023-04-02T01:44:06.456Z,95725.31
2023-04-02T01:45:39.418Z,95717.09
2023-04-02T01:47:11.681Z,95720.41
2023-04-02T01:48:43.262Z,95718.53
2023-04-02T01:50:22.753Z,95718.97
2023-04-02T01:51:56.680Z,95719.72
2023-04-02T01:53:28.592Z,95721.75
2023-04-02T01:55:00.202Z,95722.38
2023-04-02T01:56:31.794Z,95717.00
2023-04-02T01:58:03.930Z,95717.78
2023-04-02T01:59:35.808Z,95725.59
2023-04-02T02:01:12.217Z,95717.56
2023-04-02T02:02:44.009Z,95715.00
2023-04-02T02:04:16.013Z,95715.78
2023-04-02T02:05:47.609Z,95719.09
2023-04-02T02:07:20.501Z,95719.97
2023-04-02T02:08:53.482Z,95718.44
2023-04-02T02:10:27.518Z,95724.50
2023-04-02T02:11:59.248Z,95724.84
2023-04-02T02:13:31.906Z,95726.72
2023-04-02T02:15:03.974Z,95740.09
2023-04-02T02:16:41.978Z,95735.66
2023-04-02T02:18:13.759Z,95737.09
2023-04-02T02:19:46.351Z,95735.00
2023-04-02T02:21:23.518Z,95734.66
2023-04-02T02:22:55.356Z,95736.88
2023-04-02T02:24:28.860Z,95733.44
2023-04-02T02:26:00.449Z,95739.41
2023-04-02T02:27:47.241Z,95739.06
2023-04-02T02:29:18.880Z,95746.38
2023-04-02T02:30:51.498Z,95744.25
2023-04-02T02:32:27.673Z,95749.44
2023-04-02T02:34:00.964Z,95743.50
2023-04-02T02:35:35.266Z,95754.84
2023-04-02T02:37:07.567Z,95749.56
2023-04-02T02:38:49.432Z,95761.47
2023-04-02T02:40:23.881Z,95748.78
2023-04-02T02:41:56.568Z,95759.03
2023-04-02T02:43:28.225Z,95748.25
2023-04-02T02:45:00.436Z,95755.22
2023-04-02T02:46:32.040Z,95754.44
2023-04-02T02:48:05.402Z,95760.06
2023-04-02T02:49:39.452Z,95755.41
2023-04-02T02:51:17.735Z,95756.53
2023-04-02T02:52:51.495Z,95764.38
2023-04-02T02:54:23.087Z,95769.69
2023-04-02T02:55:55.958Z,95770.44
2023-04-02T02:57:28.932Z,95770.66
2023-04-02T02:59:00.673Z,95771.00
2023-04-02T03:00:33.692Z,95777.72
2023-04-02T03:02:06.912Z,95765.91
2023-04-02T03:03:40.591Z,95772.00
2023-04-02T03:05:16.561Z,95772.53
2023-04-02T03:06:49.165Z,95772.97
2023-04-02T03:08:23.020Z,95778.28
2023-04-02T03:09:57.546Z,95774.19
2023-04-02T03:11:32.472Z,95779.72
2023-04-02T03:13:06.964Z,95776.72
2023-04-02T03:14:40.287Z,95778.28
2023-04-02T03:16:12.960Z,95778.72
2023-04-02T03:17:46.420Z,95786.22
2023-04-02T03:19:24.751Z,95789.75
2023-04-02T03:20:57.555Z,95789.75
2023-04-02T03:22:32.019Z,95785.13
2023-04-02T03:24:05.713Z,95789.75
2023-04-02T03:25:39.808Z,95794.28
2023-04-02T03:27:13.242Z,95802.47
2023-04-02T03:28:47.429Z,95787.88
2023-04-02T03:30:29.580Z,95791.72
2023-04-02T03:32:03.696Z,95795.94
2023-04-02T03:33:36.211Z,95797.69
2023-04-02T03:35:14.821Z,95785.31
2023-04-02T03:36:49.083Z,95794.81
2023-04-02T03:38:21.963Z,95797.47
2023-04-02T03:39:55.649Z,95794.38
2023-04-02T03:41:31.294Z,95799.69
2023-04-02T03:43:04.241Z,95788.31
2023-04-02T03:44:37.999Z,95798.13
2023-04-02T03:46:16.607Z,95800.13
2023-04-02T03:47:51.188Z,95804.31
2023-04-02T03:49:26.632Z,95800.78
2023-04-02T03:51:00.958Z,95807.19
2023-04-02T03:52:34.133Z,95803.00
2023-04-02T03:54:05.860Z,95806.31
2023-04-02T03:55:38.082Z,95812.38
2023-04-02T03:57:12.024Z,95810.28
2023-04-02T03:58:46.956Z,95810.72
2023-04-02T04:00:20.746Z,95807.63
2023-04-02T04:01:54.240Z,95809.50
2023-04-02T04:03:28.861Z,95809.31
2023-04-02T04:05:00.636Z,95808.97
2023-04-02T04:06:33.646Z,95812.06
2023-04-02T04:08:06.589Z,95815.16
2023-04-02T04:09:38.264Z,95809.75
2023-04-02T04:11:10.822Z,95817.34
2023-04-02T04:12:43.875Z,95817.78
2023-04-02T04:14:17.234Z,95810.63
2023-04-02T04:15:51.578Z,95816.25
2023-04-02T04:17:30.144Z,95818.25
2023-04-02T04:19:03.940Z,95822.31
2023-04-02T04:20:36.613Z,95820.88
2023-04-02T04:22:10.662Z,95823.97
2023-04-02T04:23:50.642Z,95823.22
2023-04-02T04:25:25.429Z,95822.88
2023-04-02T04:26:58.381Z,95821.44
2023-04-02T04:28:32.842Z,95824.75
2023-04-02T04:30:06.311Z,95829.28
2023-04-02T04:31:39.377Z,95825.84
2023-04-02T04:33:15.348Z,95822.44
2023-04-02T04:34:51.596Z,95821.56
2023-04-02T04:36:28.586Z,95835.69
2023-04-02T04:38:04.066Z,95834.56
2023-04-02T04:39:42.622Z,95837.66
2023-04-02T04:41:15.977Z,95838.66
2023-04-02T04:42:48.237Z,95839.34
2023-04-02T04:44:21.962Z,95848.84
2023-04-02T04:45:55.782Z,95848.38
2023-04-02T04:47:30.982Z,95854.69
2023-04-02T04:49:04.989Z,95852.69
2023-04-02T04:50:38.490Z,95855.34
2023-04-02T04:52:13.968Z,95866.06
2023-04-02T04:53:47.927Z,95859.31
2023-04-02T04:55:28.436Z,95859.66
2023-04-02T04:57:01.341Z,95862.97
2023-04-02T04:58:35.254Z,95866.38
2023-04-02T05:00:12.902Z,95870.91
2023-04-02T05:01:46.649Z,95870.25
2023-04-02T05:03:22.474Z,95863.63
2023-04-02T05:04:54.174Z,95870.03
2023-04-02T05:06:32.931Z,95867.94
2023-04-02T05:08:05.784Z,95880.22
2023-04-02T05:09:40.385Z,95878.97
2023-04-02T05:11:13.810Z,95880.84
2023-04-02T05:12:46.838Z,95881.28
2023-04-02T05:14:23.883Z,95887.84
2023-04-02T05:16:01.196Z,95887.06
2023-04-02T05:17:34.167Z,95885.19
2023-04-02T05:19:07.407Z,95885.53
2023-04-02T05:20:41.370Z,95892.22
2023-04-02T05:22:17.550Z,95894.25
2023-04-02T05:23:50.876Z,95899.84
2023-04-02T05:25:34.221Z,95894.88
2023-04-02T05:27:12.733Z,95885.63
2023-04-02T05:28:47.047Z,95893.59
2023-04-02T05:30:36.068Z,95887.69
2023-04-02T05:32:09.251Z,95886.28
2023-04-02T05:33:41.084Z,95885.53
2023-04-02T05:35:16.912Z,95892.03
2023-04-02T05:36:48.801Z,95898.44
2023-04-02T05:38:21.650Z,95903.97
2023-04-02T05:39:54.461Z,95898.22
2023-04-02T05:41:28.435Z,95902.41
2023-04-02T05:43:00.357Z,95898.66
2023-04-02T05:44:32.644Z,95905.41
2023-04-02T05:46:08.082Z,95903.28
2023-04-02T05:47:41.195Z,95910.16
2023-04-02T05:49:16.816Z,95913.91
2023-04-02T05:50:49.611Z,95908.59
2023-04-02T05:52:23.530Z,95917.78
2023-04-02T05:53:55.958Z,95913.69
2023-04-02T05:55:32.582Z,95920.09
2023-04-02T05:57:07.854Z,95922.41
2023-04-02T05:58:44.033Z,95923.94
2023-04-02T06:00:20.410Z,95929.25
2023-04-02T06:01:53.551Z,95930.03
2023-04-02T06:03:27.667Z,95928.91
2023-04-02T06:05:01.205Z,95935.44
2023-04-02T06:06:49.671Z,95931.56
2023-04-02T06:08:22.748Z,95935.44
2023-04-02T06:09:56.051Z,95932.91
2023-04-02T06:11:29.225Z,95928.25
2023-04-02T06:13:03.750Z,95930.69
2023-04-02T06:14:35.585Z,95934.09
2023-04-02T06:16:07.474Z,95931.91
2023-04-02T06:17:43.685Z,95939.84
2023-04-02T06:19:17.250Z,95933.91
2023-04-02T06:20:48.942Z,95940.00
2023-04-02T06:22:24.342Z,95947.94
2023-04-02T06:23:56.976Z,95943.19
2023-04-02T06:25:30.147Z,95953.47
2023-04-02T06:27:03.004Z,95957.44
2023-04-02T06:28:40.148Z,95953.69
2023-04-02T06:30:16.192Z,95955.88
2023-04-02T06:31:49.648Z,95957.09
2023-04-02T06:33:21.463Z,95958.97
2023-04-02T06:34:53.304Z,95953.69
2023-04-02T06:36:25.113Z,95949.03
2023-04-02T06:37:57.609Z,95950.59
2023-04-02T06:39:29.255Z,95954.13
2023-04-02T06:41:05.022Z,95963.72
2023-04-02T06:42:37.281Z,95967.81
2023-04-02T06:44:13.434Z,95962.84
2023-04-02T06:45:45.677Z,95962.94
2023-04-02T06:47:22.786Z,95964.38
2023-04-02T06:48:57.001Z,95963.59
2023-04-02T06:50:31.464Z,95964.06
2023-04-02T06:52:04.495Z,95967.16
2023-04-02T06:53:37.156Z,95964.28
2023-04-02T06:55:24.643Z,95970.69
2023-04-02T06:56:56.587Z,95969.56
2023-04-02T06:58:28.300Z,95976.19
2023-04-02T07:00:04.051Z,95973.31
2023-04-02T07:01:37.004Z,95976.88
2023-04-02T07:03:14.471Z,95976.75
2023-04-02T07:04:46.167Z,95973.41
2023-04-02T07:06:18.644Z,95984.81
2023-04-02T07:07:50.267Z,95976.28
2023-04-02T07:09:22.596Z,95982.16
2023-04-02T07:10:58.439Z,95980.03
2023-04-02T07:12:30.411Z,95992.63
2023-04-02T07:14:02.238Z,95982.16
2023-04-02T07:15:35.470Z,95985.56
2023-04-02T07:17:07.437Z,95989.44
2023-04-02T07:18:39.016Z,95983.69
2023-04-02T07:20:20.582Z,95987.13
2023-04-02T07:21:52.217Z,95993.06
2023-04-02T07:23:23.997Z,95991.75
2023-04-02T07:24:55.649Z,96002.94
2023-04-02T07:26:27.949Z,95995.63
2023-04-02T07:27:59.652Z,95994.53
2023-04-02T07:29:31.260Z,95996.88
2023-04-02T07:31:04.377Z,95995.63
2023-04-02T07:32:36.663Z,96004.66
2023-04-02T07:34:08.357Z,96003.13
2023-04-02T07:35:40.380Z,96013.44
2023-04-02T07:37:13.032Z,96010.75
2023-04-02T07:38:44.698Z,96010.94
2023-04-02T07:40:17.840Z,96017.47
2023-04-02T07:41:53.242Z,96011.78
2023-04-02T07:43:24.820Z,96013.38
2023-04-02T07:44:56.462Z,96014.31
2023-04-02T07:46:29.672Z,96018.75
2023-04-02T07:48:04.744Z,96013.25
2023-04-02T07:49:36.439Z,96014.88
2023-04-02T07:51:15.042Z,96015.47
2023-04-02T07:52:46.653Z,96016.81
2023-04-02T07:54:18.219Z,96018.81
2023-04-02T07:55:52.179Z,96008.06
2023-04-02T07:57:23.907Z,96026.38
2023-04-02T07:58:55.761Z,96017.78
2023-04-02T08:00:29.117Z,96017.78
2023-04-02T08:02:02.837Z,96016.53
2023-04-02T08:03:34.617Z,96007.53
2023-04-02T08:05:06.852Z,96017.41
2023-04-02T08:06:38.440Z,96012.34
2023-04-02T08:08:10.055Z,96019.84
2023-04-02T08:09:41.652Z,96019.81
2023-04-02T08:11:13.309Z,96017.78
2023-04-02T08:12:47.086Z,96010.88
2023-04-02T08:14:18.768Z,96008.69
2023-04-02T08:15:50.523Z,96018.72
2023-04-02T08:17:23.596Z,96012.63
2023-04-02T08:18:56.418Z,96018.81
2023-04-02T08:20:28.485Z,96026.75
2023-04-02T08:22:10.129Z,96021.84
2023-04-02T08:23:42.813Z,96026.75
2023-04-02T08:25:14.585Z,96038.72
2023-04-02T08:26:46.427Z,96031.94
2023-04-02T08:28:18.093Z,96036.84
2023-04-02T08:29:49.717Z,96039.41
2023-04-02T08:31:21.676Z,96036.66
2023-04-02T08:32:54.777Z,96043.47
2023-04-02T08:34:26.460Z,96041.06
2023-04-02T08:35:58.263Z,96036.22
2023-04-02T08:37:29.941Z,96038.25
2023-04-02T08:39:01.966Z,96051.47
2023-04-02T08:40:36.170Z,96046.00
2023-04-02T08:42:17.262Z,96047.13
2023-04-02T08:44:04.123Z,96053.31
2023-04-02T08:45:42.204Z,96054.84
2023-04-02T08:47:13.989Z,96053.44
2023-04-02T08:48:49.349Z,96055.00
2023-04-02T08:50:25.628Z,96057.75
2023-04-02T08:51:57.550Z,96056.56
2023-04-02T08:53:31.196Z,96058.09
2023-04-02T08:55:03.617Z,96053.88
2023-04-02T08:56:37.414Z,96057.25
2023-04-02T08:58:13.852Z,96054.16
2023-04-02T08:59:45.635Z,96058.41
2023-04-02T09:01:24.461Z,96061.09
2023-04-02T09:02:56.813Z,96052.53
2023-04-02T09:04:29.969Z,96058.03
2023-04-02T09:06:01.680Z,96057.19
2023-04-02T09:07:33.666Z,96058.94
2023-04-02T09:09:05.622Z,96059.03
2023-04-02T09:10:40.716Z,96067.53
2023-04-02T09:12:16.642Z,96064.03
2023-04-02T09:13:50.500Z,96063.25
2023-04-02T09:15:25.722Z,96062.72
2023-04-02T09:16:59.264Z,96069.94
2023-04-02T09:18:31.168Z,96076.72
2023-04-02T09:20:17.177Z,96070.41
2023-04-02T09:21:57.077Z,96078.69
2023-04-02T09:23:28.791Z,96077.88
2023-04-02T09:25:02.150Z,96080.09
2023-04-02T09:26:34.087Z,96075.19
2023-04-02T09:28:06.012Z,96081.88
2023-04-02T09:29:44.687Z,96078.00
2023-04-02T09:31:19.986Z,96080.97
2023-04-02T09:32:52.976Z,96077.91
2023-04-02T09:34:28.994Z,96091.00
2023-04-02T09:36:02.094Z,96089.03
2023-04-02T09:37:33.961Z,96090.88
2023-04-02T09:39:17.014Z,96088.81
2023-04-02T09:40:50.096Z,96094.44
2023-04-02T09:42:33.895Z,96088.16
2023-04-02T09:44:13.189Z,96095.88
2023-04-02T09:45:45.307Z,96096.56
2023-04-02T09:47:24.295Z,96102.97
2023-04-02T09:48:58.493Z,96100.47
2023-04-02T09:50:33.665Z,96098.75
2023-04-02T09:52:27.857Z,96105.53
2023-04-02T09:54:12.305Z,96109.25
2023-04-02T09:55:43.957Z,96097.34
2023-04-02T09:57:23.851Z,96110.75
2023-04-02T09:59:04.543Z,96111.47
2023-04-02T10:00:36.528Z,96120.63
2023-04-02T10:02:23.506Z,96109.63
2023-04-02T10:03:55.974Z,96113.47
2023-04-02T10:05:39.998Z,96113.91
2023-04-02T10:07:34.927Z,96120.34
2023-04-02T10:09:20.303Z,96117.75
2023-04-02T10:10:53.308Z,96111.50
2023-04-02T10:12:24.984Z,96125.19
2023-04-02T10:14:00.689Z,96117.22
2023-04-02T10:15:34.038Z,96115.09
2023-04-02T10:17:08.263Z,96122.19
2023-04-02T10:18:43.293Z,96120.00
2023-04-02T10:20:17.910Z,96126.31
2023-04-02T10:21:49.611Z,96126.78
2023-04-02T10:23:24.778Z,96129.00
2023-04-02T10:24:56.607Z,96126.00
2023-04-02T10:26:46.882Z,96136.91
2023-04-02T10:28:31.321Z,96125.50
2023-04-02T10:30:11.419Z,96129.63
2023-04-02T10:31:47.427Z,96123.56
2023-04-02T10:33:21.500Z,96119.69
2023-04-02T10:34:57.377Z,96130.75
2023-04-02T10:36:36.265Z,96123.44
2023-04-02T10:38:26.395Z,96132.72
2023-04-02T10:39:58.551Z,96127.19
2023-04-02T10:41:31.809Z,96133.88
2023-04-02T10:43:28.427Z,96122.53
2023-04-02T10:45:19.825Z,96120.88
2023-04-02T10:46:58.190Z,96133.69
2023-04-02T10:48:32.714Z,96139.25
2023-04-02T10:50:24.521Z,96131.78
2023-04-02T10:51:59.012Z,96134.34
2023-04-02T10:53:33.491Z,96142.41
2023-04-02T10:55:06.673Z,96146.38
2023-04-02T10:56:50.004Z,96141.88
2023-04-02T10:58:24.256Z,96144.22
2023-04-02T10:59:57.695Z,96143.34
2023-04-02T11:01:29.915Z,96135.22
2023-04-02T11:03:04.820Z,96140.97
2023-04-02T11:04:39.474Z,96149.28
2023-04-02T11:06:14.179Z,96150.09
2023-04-02T11:07:52.295Z,96144.94
2023-04-02T11:09:26.677Z,96143.34
2023-04-02T11:11:00.018Z,96146.72
2023-04-02T11:12:41.556Z,96143.28
2023-04-02T11:14:17.169Z,96149.94
2023-04-02T11:15:48.914Z,96154.38
2023-04-02T11:17:21.331Z,96143.78
2023-04-02T11:19:10.519Z,96152.38
2023-04-02T11:20:56.283Z,96150.00
2023-04-02T11:22:28.005Z,96156.78
2023-04-02T11:24:00.367Z,96153.50
2023-04-02T11:25:33.533Z,96168.06
2023-04-02T11:27:07.579Z,96160.53
2023-04-02T11:28:39.278Z,96153.50
2023-04-02T11:30:24.442Z,96155.00
2023-04-02T11:32:14.792Z,96154.19
2023-04-02T11:33:48.824Z,96158.94
2023-04-02T11:35:27.756Z,96157.97
2023-04-02T11:37:00.362Z,96161.03
2023-04-02T11:38:52.336Z,96162.03
2023-04-02T11:40:47.176Z,96162.94
2023-04-02T11:42:24.790Z,96153.13
2023-04-02T11:44:00.406Z,96153.09
2023-04-02T11:46:02.392Z,96162.94
2023-04-02T11:47:34.143Z,96161.84
2023-04-02T11:49:36.014Z,96155.53
2023-04-02T11:51:12.141Z,96157.19
2023-04-02T11:52:51.825Z,96158.19
2023-04-02T11:54:26.671Z,96154.91
2023-04-02T11:56:19.106Z,96159.19
2023-04-02T11:57:56.247Z,96168.44
2023-04-02T11:59:29.139Z,96168.31
2023-04-02T12:01:22.657Z,96170.13
2023-04-02T12:03:03.405Z,96157.53
2023-04-02T12:05:04.394Z,96155.38
2023-04-02T12:06:48.191Z,96155.03
2023-04-02T12:08:27.503Z,96163.81
2023-04-02T12:09:59.416Z,96161.94
2023-04-02T12:11:33.683Z,96159.31
2023-04-02T12:13:05.348Z,96159.19
2023-04-02T12:14:43.634Z,96160.41
2023-04-02T12:16:15.520Z,96170.63
2023-04-02T12:17:47.281Z,96162.72
2023-04-02T12:19:19.105Z,96167.53
2023-04-02T12:20:52.033Z,96169.25
2023-04-02T12:22:24.726Z,96155.59
2023-04-02T12:23:57.815Z,96152.09
2023-04-02T12:25:31.500Z,96159.72
2023-04-02T12:27:15.652Z,96166.56
2023-04-02T12:28:47.773Z,96157.75
2023-04-02T12:30:20.714Z,96156.72
2023-04-02T12:31:52.617Z,96162.03
2023-04-02T12:33:29.494Z,96164.94
2023-04-02T12:35:04.914Z,96163.75
2023-04-02T12:36:36.612Z,96165.03
2023-04-02T12:38:19.194Z,96167.47
2023-04-02T12:39:55.487Z,96163.75
2023-04-02T12:41:30.225Z,96163.59
2023-04-02T12:43:06.265Z,96168.78
2023-04-02T12:44:38.034Z,96161.88
2023-04-02T12:46:09.752Z,96167.00
2023-04-02T12:47:44.319Z,96166.63
2023-04-02T12:49:27.087Z,96171.38
2023-04-02T12:50:58.833Z,96168.94
2023-04-02T12:52:30.637Z,96172.00
2023-04-02T12:54:02.445Z,96167.28
2023-04-02T12:55:34.281Z,96169.66
2023-04-02T12:57:33.676Z,96166.22
2023-04-02T12:59:18.662Z,96169.13
2023-04-02T13:00:50.878Z,96168.16
2023-04-02T13:02:23.374Z,96165.56
2023-04-02T13:04:04.513Z,96171.34
2023-04-02T13:05:38.039Z,96166.22
2023-04-02T13:07:14.600Z,96164.28
2023-04-02T13:08:46.359Z,96162.34
2023-04-02T13:10:23.245Z,96173.13
2023-04-02T13:11:54.913Z,96167.16
2023-04-02T13:13:30.170Z,96167.00
2023-04-02T13:15:04.597Z,96161.59
2023-04-02T13:16:36.670Z,96163.16
2023-04-02T13:18:19.152Z,96169.66
2023-04-02T13:19:51.052Z,96167.56
2023-04-02T13:21:28.556Z,96161.97
2023-04-02T13:23:01.495Z,96169.66
2023-04-02T13:24:33.289Z,96168.44
2023-04-02T13:26:26.290Z,96166.09
2023-04-02T13:27:58.237Z,96166.88
2023-04-02T13:29:30.188Z,96163.75
2023-04-02T13:31:03.176Z,96163.34
2023-04-02T13:32:34.871Z,96163.47
2023-04-02T13:34:06.492Z,96162.13
2023-04-02T13:35:38.146Z,96156.16
2023-04-02T13:37:10.582Z,96162.75
2023-04-02T13:38:42.190Z,96158.38
2023-04-02T13:40:14.809Z,96169.66
2023-04-02T13:41:47.964Z,96156.38
2023-04-02T13:43:20.069Z,96151.97
2023-04-02T13:44:54.491Z,96166.63
2023-04-02T13:46:28.890Z,96166.19
2023-04-02T13:48:03.623Z,96165.63
2023-04-02T13:49:35.944Z,96153.94
2023-04-02T13:51:09.366Z,96159.28
2023-04-02T13:52:41.160Z,96161.59
2023-04-02T13:54:17.222Z,96157.38
2023-04-02T13:55:48.827Z,96160.03
2023-04-02T13:57:20.785Z,96165.81
2023-04-02T13:58:52.547Z,96161.22
2023-04-02T14:00:30.194Z,96162.78
2023-04-02T14:02:14.316Z,96165.03
2023-04-02T14:03:46.130Z,96166.63
2023-04-02T14:05:26.781Z,96160.00
2023-04-02T14:07:24.629Z,96160.47
2023-04-02T14:09:02.484Z,96161.63
2023-04-02T14:10:51.233Z,96166.19
2023-04-02T14:12:28.571Z,96151.47
2023-04-02T14:14:30.213Z,96167.78
2023-04-02T14:16:16.862Z,96166.25
2023-04-02T14:17:58.026Z,96168.94
2023-04-02T14:19:48.888Z,96171.59
2023-04-02T14:21:25.442Z,96171.13
2023-04-02T14:23:10.533Z,96170.03
2023-04-02T14:24:45.099Z,96171.59
2023-04-02T14:26:19.182Z,96162.75
2023-04-02T14:27:55.160Z,96178.91
2023-04-02T14:29:29.444Z,96168.13
2023-04-02T14:31:03.437Z,96173.53
2023-04-02T14:32:38.188Z,96175.09
2023-04-02T14:34:15.917Z,96181.25
2023-04-02T14:35:49.317Z,96178.13
2023-04-02T14:37:22.958Z,96181.22
2023-04-02T14:38:56.033Z,96170.03
2023-04-02T14:40:29.801Z,96174.25
2023-04-02T14:42:02.590Z,96179.91
2023-04-02T14:43:38.065Z,96174.28
2023-04-02T14:45:12.142Z,96171.59
2023-04-02T14:46:47.141Z,96176.13
2023-04-02T14:48:31.594Z,96179.13
2023-04-02T14:50:10.899Z,96174.63
2023-04-02T14:51:44.234Z,96176.59
2023-04-02T14:53:18.372Z,96180.44
2023-04-02T14:54:52.246Z,96187.78
2023-04-02T14:56:24.166Z,96191.22
2023-04-02T14:57:55.834Z,96193.81
2023-04-02T14:59:29.622Z,96192.81
2023-04-02T15:01:02.904Z,96197.88
2023-04-02T15:02:43.273Z,96194.94
2023-04-02T15:04:17.203Z,96197.06
2023-04-02T15:05:52.127Z,96205.97
2023-04-02T15:07:24.985Z,96200.75
2023-04-02T15:09:09.259Z,96201.97
2023-04-02T15:11:00.161Z,96199.44
2023-04-02T15:12:36.143Z,96204.44
2023-04-02T15:14:13.060Z,96204.31
2023-04-02T15:15:47.906Z,96198.56
2023-04-02T15:17:20.428Z,96204.16
2023-04-02T15:18:52.340Z,96205.81
2023-04-02T15:20:26.833Z,96207.66
2023-04-02T15:22:25.067Z,96208.25
2023-04-02T15:24:07.307Z,96205.03
2023-04-02T15:25:45.542Z,96204.09
2023-04-02T15:27:30.526Z,96206.28
2023-04-02T15:29:04.213Z,96208.19
2023-04-02T15:30:44.146Z,96204.81
2023-04-02T15:32:27.360Z,96210.72
2023-04-02T15:34:26.927Z,96213.69
2023-04-02T15:36:04.218Z,96217.75
2023-04-02T15:37:50.700Z,96216.63
2023-04-02T15:39:29.479Z,96216.13
2023-04-02T15:41:02.094Z,96216.78
2023-04-02T15:42:50.709Z,96218.94
2023-04-02T15:44:27.408Z,96223.66
2023-04-02T15:46:09.912Z,96225.28
2023-04-02T15:47:45.895Z,96221.59
2023-04-02T15:49:32.774Z,96220.63
2023-04-02T15:51:12.717Z,96221.66
2023-04-02T15:52:50.769Z,96224.41
2023-04-02T15:54:30.945Z,96226.31
2023-04-02T15:56:08.367Z,96224.28
2023-04-02T15:57:53.543Z,96229.69
2023-04-02T15:59:39.334Z,96227.13
2023-04-02T16:01:15.919Z,96229.59
2023-04-02T16:03:28.763Z,96228.47
2023-04-02T16:05:03.803Z,96228.91
2023-04-02T16:06:38.024Z,96232.34
2023-04-02T16:08:35.545Z,96228.56
2023-04-02T16:10:09.671Z,96238.53
2023-04-02T16:11:44.041Z,96239.78
2023-04-02T16:13:19.384Z,96241.25
2023-04-02T16:14:51.057Z,96242.03
2023-04-02T16:16:25.092Z,96239.31
2023-04-02T16:17:58.876Z,96245.84
2023-04-02T16:19:34.334Z,96249.69
2023-04-02T16:21:06.557Z,96251.25
2023-04-02T16:22:53.377Z,96249.50
2023-04-02T16:24:37.759Z,96253.72
2023-04-02T16:26:21.923Z,96261.38
2023-04-02T16:27:56.750Z,96251.41
2023-04-02T16:29:51.419Z,96257.72
2023-04-02T16:31:27.574Z,96258.19
2023-04-02T16:33:07.852Z,96260.00
2023-04-02T16:34:41.522Z,96265.88
2023-04-02T16:36:21.523Z,96260.69
2023-04-02T16:37:56.396Z,96266.03
2023-04-02T16:39:39.743Z,96270.59
2023-04-02T16:41:16.535Z,96268.63
2023-04-02T16:42:49.723Z,96272.66
2023-04-02T16:44:29.226Z,96281.44
2023-04-02T16:46:05.784Z,96277.84
2023-04-02T16:47:46.778Z,96286.22
2023-04-02T16:49:23.516Z,96286.56
2023-04-02T16:51:07.473Z,96286.13
2023-04-02T16:52:41.789Z,96292.94
2023-04-02T16:54:16.386Z,96289.00
2023-04-02T16:55:56.461Z,96290.63
2023-04-02T16:57:58.247Z,96290.91
2023-04-02T16:59:34.893Z,96295.03
2023-04-02T17:01:16.348Z,96295.47
2023-04-02T17:02:54.828Z,96303.13
2023-04-02T17:04:50.878Z,96301.78
2023-04-02T17:06:29.920Z,96305.22
2023-04-02T17:08:13.223Z,96302.84
2023-04-02T17:09:48.160Z,96308.09
2023-04-02T17:11:23.905Z,96302.88
2023-04-02T17:13:00.752Z,96308.53
2023-04-02T17:14:34.862Z,96306.31
2023-04-02T17:16:12.530Z,96314.75
2023-04-02T17:17:44.860Z,96312.19
2023-04-02T17:19:16.901Z,96314.31
2023-04-02T17:20:51.611Z,96319.59
2023-04-02T17:22:26.210Z,96319.38
2023-04-02T17:23:58.747Z,96334.56
2023-04-02T17:25:31.758Z,96326.97
2023-04-02T17:27:06.411Z,96333.19
2023-04-02T17:28:38.129Z,96332.16
2023-04-02T17:30:14.745Z,96333.19
2023-04-02T17:31:48.453Z,96339.22
2023-04-02T17:33:22.215Z,96339.97
2023-04-02T17:34:53.981Z,96333.97
2023-04-02T17:36:34.098Z,96348.09
2023-04-02T17:38:08.959Z,96345.22
2023-04-02T17:39:42.608Z,96357.53
2023-04-02T17:41:17.066Z,96353.41
2023-04-02T17:42:52.619Z,96354.94
2023-04-02T17:44:30.349Z,96359.94
2023-04-02T17:46:03.118Z,96362.75
2023-04-02T17:47:43.765Z,96368.88
2023-04-02T17:49:18.171Z,96368.53
2023-04-02T17:51:02.468Z,96366.97
2023-04-02T17:52:35.582Z,96372.22
2023-04-02T17:54:19.218Z,96376.63
2023-04-02T17:55:55.950Z,96376.28
2023-04-02T17:57:41.250Z,96376.09
2023-04-02T17:59:21.703Z,96382.91
2023-04-02T18:01:00.114Z,96388.41
2023-04-02T18:02:39.013Z,96385.31
2023-04-02T18:04:18.923Z,96389.41
2023-04-02T18:05:52.807Z,96390.06
2023-04-02T18:07:38.439Z,96389.97
2023-04-02T18:09:29.580Z,96400.22
2023-04-02T18:13:43.919Z,96405.53
2023-04-02T18:15:38.409Z,96402.19
2023-04-02T18:17:47.240Z,96398.91
2023-04-02T18:19:52.613Z,96412.09
2023-04-02T18:22:05.399Z,96404.75
2023-04-02T18:25:54.352Z,96418.88
2023-04-02T18:28:05.228Z,96427.09
2023-04-02T18:30:01.147Z,96438.00
2023-04-02T18:31:43.616Z,96439.09
2023-04-02T18:33:38.052Z,96441.22
2023-04-02T18:35:47.875Z,96436.34
2023-04-02T18:37:26.767Z,96448.13
2023-04-02T18:41:27.122Z,96452.28
2023-04-02T18:43:14.047Z,96453.47
2023-04-02T18:44:54.606Z,96457.97
2023-04-02T18:46:31.098Z,96465.19
2023-04-02T18:48:20.101Z,96464.63
2023-04-02T18:50:12.070Z,96467.94
2023-04-02T18:51:55.693Z,96461.41
2023-04-02T18:53:28.621Z,96474.72
2023-04-02T18:55:05.764Z,96468.19
2023-04-02T18:56:38.613Z,96464.59
2023-04-02T18:58:12.292Z,96483.16
2023-04-02T18:59:46.645Z,96472.97
2023-04-02T19:01:21.357Z,96476.06